Pelagos — SZSW — position and weather

sailwx.info

Track history (hours):
 
Tides and Currents Weather Stations Pressure Air Temp Water Temp Dewpoint Dewpoint Depression Visibility Wind Speed Wind Dir Waves Ship Positions

Pelagos

Last reported at 2016-Jul-28 09:31 UTC. Time now 2016-Jul-28 10:32 UTC.
Position N 51°57' E 004°08'.

Length 249 m; draft 13.6 m.

Type: Ship. MMSI: 240335000.

Date/timePositionNaut miles runAvg speedWind from/ knotsBaromVisibWave heightAir tempDewpointWater temp
2016-Jul-28 09:31N 51°57' E 004°08'0 0.0
2016-Jul-28 08:31N 51°57' E 004°08'0 0.0
2016-Jul-28 07:31N 51°57' E 004°08'0 0.0
2016-Jul-28 06:31N 51°57' E 004°08'0 0.0
2016-Jul-28 05:28N 51°57' E 004°08'0 0.0
2016-Jul-28 04:28N 51°57' E 004°08'0 0.0
2016-Jul-28 03:28N 51°57' E 004°08'0 0.0
2016-Jul-28 02:31N 51°57' E 004°08'0 0.0
2016-Jul-28 01:32N 51°57' E 004°08'0 0.0
2016-Jul-28 00:32N 51°57' E 004°08'0 0.0
2016-Jul-27 23:32N 51°57' E 004°08'0 0.0
2016-Jul-27 22:32N 51°57' E 004°08'0 0.0
2016-Jul-27 21:32N 51°57' E 004°08'0 0.0
2016-Jul-27 20:32N 51°57' E 004°08'0 0.0
2016-Jul-27 19:32N 51°57' E 004°08'1 1.3
2016-Jul-27 18:34N 51°58' E 004°07'1111.1
2016-Jul-27 17:33N 52°00' E 003°49'42111.1
2016-Jul-26 03:31N 57°49' E 010°40'1312.0
2016-Jul-26 02:26N 57°42' E 011°01'1112.1
2016-Jul-26 01:33N 57°34' E 011°14'1212.2
2016-Jul-26 00:33N 57°25' E 011°29'1212.5
2016-Jul-25 23:33N 57°13' E 011°36'1312.6
2016-Jul-25 22:33N 57°01' E 011°44'1212.0
2016-Jul-25 21:33N 56°49' E 011°51'1110.8
2016-Jul-25 20:33N 56°39' E 011°47'1312.5
2016-Jul-25 19:33N 56°28' E 011°36'1010.0
2016-Jul-25 18:33N 56°23' E 011°20'8 7.7
2016-Jul-25 17:30N 56°20' E 011°06'1212.8
2016-Jul-25 16:33N 56°08' E 011°06'1312.8
2016-Jul-25 15:33N 55°56' E 010°58'2311.4
2016-Jul-25 13:32N 55°33' E 010°50'1212.5
2016-Jul-25 12:33N 55°23' E 011°02'1110.9
2016-Jul-25 11:33N 55°12' E 011°06'1211.6
2016-Jul-25 10:33N 55°01' E 010°60'1313.0
2016-Jul-25 09:33N 54°49' E 010°50'1110.8
2016-Jul-25 08:33N 54°39' E 010°53'1313.0
2016-Jul-25 07:33N 54°35' E 011°14'1413.7
2016-Jul-25 06:33N 54°29' E 011°36'1312.7
2016-Jul-25 05:33N 54°26' E 011°57'1010.2
2016-Jul-25 04:33N 54°30' E 012°13'10 9.7
2016-Jul-25 03:33N 54°39' E 012°22'9 9.4
2016-Jul-25 02:33N 54°43' E 012°36'9 8.8
2016-Jul-25 01:33N 54°48' E 012°49'1212.0
2016-Jul-25 00:33N 54°53' E 013°08'1212.4
2016-Jul-24 23:33N 54°57' E 013°29'1212.4
2016-Jul-24 22:34N 55°01' E 013°49'1212.2
2016-Jul-24 21:34N 55°07' E 014°08'1312.5
2016-Jul-24 20:33N 55°17' E 014°21'1212.4
2016-Jul-24 19:33N 55°26' E 014°35'1212.4
2016-Jul-24 18:33N 55°32' E 014°55'1312.5
2016-Jul-24 17:33N 55°38' E 015°15'7812.3
2016-Jul-24 11:15N 55°57' E 017°28'1312.4
2016-Jul-24 10:12N 56°02' E 017°50'2112.5
2016-Jul-24 08:33N 56°13' E 018°21'25512.1
2016-Jul-23 11:32N 59°36' E 023°10'1312.4
2016-Jul-23 10:31N 59°39' E 023°34'1312.3
2016-Jul-23 09:28N 59°43' E 023°59'1712.5
2016-Jul-23 08:05N 59°48' E 024°32'612.3
2016-Jul-23 07:33N 59°50' E 024°44'5012.4
2016-Jul-23 03:33N 59°60' E 026°21'1211.9
2016-Jul-23 02:33N 60°01' E 026°45'1311.8
2016-Jul-23 01:30N 60°02' E 027°10'1212.3
2016-Jul-23 00:33N 60°08' E 027°30'1211.8
2016-Jul-22 23:33N 60°11' E 027°53'1212.4
2016-Jul-22 22:33N 60°08' E 028°17'1211.9
2016-Jul-22 21:33N 60°10' E 028°40'8 7.5
2016-Jul-22 20:29N 60°18' E 028°44'1 0.0
2016-Jul-21 08:33N 60°19' E 028°43'1210.1
2016-Jul-21 07:23N 60°07' E 028°37'7 8.5
2016-Jul-21 06:31N 60°01' E 028°27'0 0.1
2016-Jul-21 05:31N 60°01' E 028°27'0 0.0
2016-Jul-21 04:30N 60°01' E 028°27'0 0.0
2016-Jul-21 03:33N 60°01' E 028°27'0 0.0
2016-Jul-21 02:33N 60°01' E 028°27'0 0.0
2016-Jul-21 01:33N 60°01' E 028°27'0 0.0
2016-Jul-21 00:33N 60°01' E 028°27'0 0.0
2016-Jul-20 23:33N 60°01' E 028°27'0 0.0
2016-Jul-20 22:34N 60°01' E 028°27'0 0.0
2016-Jul-20 21:25N 60°01' E 028°27'0 0.0
2016-Jul-20 20:24N 60°01' E 028°27'0 0.0
2016-Jul-20 19:27N 60°01' E 028°27'0 0.2
2016-Jul-20 18:33N 60°01' E 028°28'6 6.4
2016-Jul-20 17:33N 60°06' E 028°18'1010.2
2016-Jul-20 16:34N 60°09' E 027°59'1010.1
2016-Jul-20 15:34N 60°08' E 027°39'1110.5
2016-Jul-20 14:33N 60°03' E 027°20'1010.2
2016-Jul-20 13:33N 59°58' E 027°03'1010.4
2016-Jul-20 12:34N 59°59' E 026°43'1110.3
2016-Jul-20 11:30N 59°57' E 026°21'4610.3
2016-Jul-20 07:05N 59°46' E 024°53'1610.5
2016-Jul-20 05:33N 59°43' E 024°22'1010.3
2016-Jul-20 04:33N 59°40' E 024°02'1110.5
2016-Jul-20 03:33N 59°37' E 023°43'1010.2
2016-Jul-20 02:33N 59°33' E 023°24'1010.2
2016-Jul-20 01:34N 59°30' E 023°05'1210.3
2016-Jul-20 00:22N 59°25' E 022°42'325 9.6
2016-Jul-18 14:33N 55°36' E 015°34'1010.2
2016-Jul-18 13:34N 55°33' E 015°17'1010.3
2016-Jul-18 12:34N 55°29' E 015°00'1010.2
2016-Jul-18 11:33N 55°25' E 014°44'1010.1
2016-Jul-18 10:34N 55°18' E 014°31'1110.7
2016-Jul-18 09:34N 55°10' E 014°18'  
Track history (hours):
 
Tides and Currents Weather Stations Pressure Air Temp Water Temp Dewpoint Dewpoint Depression Visibility Wind Speed Wind Dir Waves Ship Positions

Pelagos

Last reported at 2016-Jul-28 09:31 UTC. Time now 2016-Jul-28 10:32 UTC.
Position N 51°57' E 004°08'.

Length 249 m; draft 13.6 m.

Type: Ship. MMSI: 240335000.

Date/timePositionNaut miles runAvg speedWind from/ knotsBaromVisibWave heightAir tempDewpointWater temp
2016-Jul-28 09:31N 51°57' E 004°08'0 0.0
2016-Jul-28 08:31N 51°57' E 004°08'0 0.0
2016-Jul-28 07:31N 51°57' E 004°08'0 0.0
2016-Jul-28 06:31N 51°57' E 004°08'0 0.0
2016-Jul-28 05:28N 51°57' E 004°08'0 0.0
2016-Jul-28 04:28N 51°57' E 004°08'0 0.0
2016-Jul-28 03:28N 51°57' E 004°08'0 0.0
2016-Jul-28 02:31N 51°57' E 004°08'0 0.0
2016-Jul-28 01:32N 51°57' E 004°08'0 0.0
2016-Jul-28 00:32N 51°57' E 004°08'0 0.0
2016-Jul-27 23:32N 51°57' E 004°08'0 0.0
2016-Jul-27 22:32N 51°57' E 004°08'0 0.0
2016-Jul-27 21:32N 51°57' E 004°08'0 0.0
2016-Jul-27 20:32N 51°57' E 004°08'0 0.0
2016-Jul-27 19:32N 51°57' E 004°08'1 1.3
2016-Jul-27 18:34N 51°58' E 004°07'1111.1
2016-Jul-27 17:33N 52°00' E 003°49'42111.1
2016-Jul-26 03:31N 57°49' E 010°40'1312.0
2016-Jul-26 02:26N 57°42' E 011°01'1112.1
2016-Jul-26 01:33N 57°34' E 011°14'1212.2
2016-Jul-26 00:33N 57°25' E 011°29'1212.5
2016-Jul-25 23:33N 57°13' E 011°36'1312.6
2016-Jul-25 22:33N 57°01' E 011°44'1212.0
2016-Jul-25 21:33N 56°49' E 011°51'1110.8
2016-Jul-25 20:33N 56°39' E 011°47'1312.5
2016-Jul-25 19:33N 56°28' E 011°36'1010.0
2016-Jul-25 18:33N 56°23' E 011°20'8 7.7
2016-Jul-25 17:30N 56°20' E 011°06'1212.8
2016-Jul-25 16:33N 56°08' E 011°06'1312.8
2016-Jul-25 15:33N 55°56' E 010°58'2311.4
2016-Jul-25 13:32N 55°33' E 010°50'1212.5
2016-Jul-25 12:33N 55°23' E 011°02'1110.9
2016-Jul-25 11:33N 55°12' E 011°06'1211.6
2016-Jul-25 10:33N 55°01' E 010°60'1313.0
2016-Jul-25 09:33N 54°49' E 010°50'1110.8
2016-Jul-25 08:33N 54°39' E 010°53'1313.0
2016-Jul-25 07:33N 54°35' E 011°14'1413.7
2016-Jul-25 06:33N 54°29' E 011°36'1312.7
2016-Jul-25 05:33N 54°26' E 011°57'1010.2
2016-Jul-25 04:33N 54°30' E 012°13'10 9.7
2016-Jul-25 03:33N 54°39' E 012°22'9 9.4
2016-Jul-25 02:33N 54°43' E 012°36'9 8.8
2016-Jul-25 01:33N 54°48' E 012°49'1212.0
2016-Jul-25 00:33N 54°53' E 013°08'1212.4
2016-Jul-24 23:33N 54°57' E 013°29'1212.4
2016-Jul-24 22:34N 55°01' E 013°49'1212.2
2016-Jul-24 21:34N 55°07' E 014°08'1312.5
2016-Jul-24 20:33N 55°17' E 014°21'1212.4
2016-Jul-24 19:33N 55°26' E 014°35'1212.4
2016-Jul-24 18:33N 55°32' E 014°55'1312.5
2016-Jul-24 17:33N 55°38' E 015°15'7812.3
2016-Jul-24 11:15N 55°57' E 017°28'1312.4
2016-Jul-24 10:12N 56°02' E 017°50'2112.5
2016-Jul-24 08:33N 56°13' E 018°21'25512.1
2016-Jul-23 11:32N 59°36' E 023°10'1312.4
2016-Jul-23 10:31N 59°39' E 023°34'1312.3
2016-Jul-23 09:28N 59°43' E 023°59'1712.5
2016-Jul-23 08:05N 59°48' E 024°32'612.3
2016-Jul-23 07:33N 59°50' E 024°44'5012.4
2016-Jul-23 03:33N 59°60' E 026°21'1211.9
2016-Jul-23 02:33N 60°01' E 026°45'1311.8
2016-Jul-23 01:30N 60°02' E 027°10'1212.3
2016-Jul-23 00:33N 60°08' E 027°30'1211.8
2016-Jul-22 23:33N 60°11' E 027°53'1212.4
2016-Jul-22 22:33N 60°08' E 028°17'1211.9
2016-Jul-22 21:33N 60°10' E 028°40'8 7.5
2016-Jul-22 20:29N 60°18' E 028°44'1 0.0
2016-Jul-21 08:33N 60°19' E 028°43'1210.1
2016-Jul-21 07:23N 60°07' E 028°37'7 8.5
2016-Jul-21 06:31N 60°01' E 028°27'0 0.1
2016-Jul-21 05:31N 60°01' E 028°27'0 0.0
2016-Jul-21 04:30N 60°01' E 028°27'0 0.0
2016-Jul-21 03:33N 60°01' E 028°27'0 0.0
2016-Jul-21 02:33N 60°01' E 028°27'0 0.0
2016-Jul-21 01:33N 60°01' E 028°27'0 0.0
2016-Jul-21 00:33N 60°01' E 028°27'0 0.0
2016-Jul-20 23:33N 60°01' E 028°27'0 0.0
2016-Jul-20 22:34N 60°01' E 028°27'0 0.0
2016-Jul-20 21:25N 60°01' E 028°27'0 0.0
2016-Jul-20 20:24N 60°01' E 028°27'0 0.0
2016-Jul-20 19:27N 60°01' E 028°27'0 0.2
2016-Jul-20 18:33N 60°01' E 028°28'6 6.4
2016-Jul-20 17:33N 60°06' E 028°18'1010.2
2016-Jul-20 16:34N 60°09' E 027°59'1010.1
2016-Jul-20 15:34N 60°08' E 027°39'1110.5
2016-Jul-20 14:33N 60°03' E 027°20'1010.2
2016-Jul-20 13:33N 59°58' E 027°03'1010.4
2016-Jul-20 12:34N 59°59' E 026°43'1110.3
2016-Jul-20 11:30N 59°57' E 026°21'4610.3
2016-Jul-20 07:05N 59°46' E 024°53'1610.5
2016-Jul-20 05:33N 59°43' E 024°22'1010.3
2016-Jul-20 04:33N 59°40' E 024°02'1110.5
2016-Jul-20 03:33N 59°37' E 023°43'1010.2
2016-Jul-20 02:33N 59°33' E 023°24'1010.2
2016-Jul-20 01:34N 59°30' E 023°05'1210.3
2016-Jul-20 00:22N 59°25' E 022°42'325 9.6
2016-Jul-18 14:33N 55°36' E 015°34'1010.2
2016-Jul-18 13:34N 55°33' E 015°17'1010.3
2016-Jul-18 12:34N 55°29' E 015°00'1010.2
2016-Jul-18 11:33N 55°25' E 014°44'1010.1
2016-Jul-18 10:34N 55°18' E 014°31'1110.7
2016-Jul-18 09:34N 55°10' E 014°18'  

Dump ship's entire track history